Time;durP1;ratioP1;P1;durP2;ratioP2;P2;SDS_P1;SDS_P2;PMS_P1;PMS_P2;Temp;Humidity;BMP_temperature;BMP_pressure;BME280_temperature;BME280_humidity;BME280_pressure;Samples;Min_cycle;Max_cycle;Signal;HPM_P1;HPM_P2
2023/01/12 00:01:24;;;;;;;9.77;2.92;;;;;;;;;;5021027;28;20194;-61
2023/01/12 00:03:51;;;;;;;14.00;5.10;;;;;;;;;;5026681;28;20037;-62
2023/01/12 00:06:18;;;;;;;35.58;18.67;;;;;;;;;;5026884;28;20041;-62
2023/01/12 00:08:44;;;;;;;10.70;3.47;;;;;;;;;;5025188;28;20041;-61
2023/01/12 00:11:11;;;;;;;38.42;18.15;;;;;;;;;;5026280;28;20049;-62
2023/01/12 00:13:37;;;;;;;22.08;9.13;;;;;;;;;;5021824;28;20099;-62
2023/01/12 00:18:48;;;;;;;16.50;4.88;;;;;;;;;;5025434;28;21025;-62
2023/01/12 00:21:14;;;;;;;33.30;14.32;;;;;;;;;;5023404;28;20487;-62
2023/01/12 00:23:43;;;;;;;20.50;6.38;;;;;;;;;;5023350;28;20048;-61
2023/01/12 00:26:10;;;;;;;23.33;7.07;;;;;;;;;;5024172;28;20168;-62
2023/01/12 00:28:37;;;;;;;13.85;5.28;;;;;;;;;;5024469;28;20041;-62
2023/01/12 00:31:06;;;;;;;17.88;5.35;;;;;;;;;;5025816;28;20116;-62
2023/01/12 00:33:33;;;;;;;18.63;4.50;;;;;;;;;;5021079;28;20112;-62
2023/01/12 00:36:04;;;;;;;13.63;3.28;;;;;;;;;;5031510;28;20041;-62
2023/01/12 00:38:29;;;;;;;12.15;4.03;;;;;;;;;;5024842;28;20546;-62
2023/01/12 00:40:56;;;;;;;15.90;3.97;;;;;;;;;;5025380;28;20045;-62
2023/01/12 00:46:08;;;;;;;11.10;2.65;;;;;;;;;;5032369;28;20047;-61
2023/01/12 00:48:34;;;;;;;16.13;3.13;;;;;;;;;;5027413;28;20045;-61
2023/01/12 00:51:02;;;;;;;17.67;3.50;;;;;;;;;;5031777;28;20034;-62
2023/01/12 00:53:28;;;;;;;12.88;3.03;;;;;;;;;;5027634;28;20042;-62
2023/01/12 00:55:59;;;;;;;10.77;3.05;;;;;;;;;;5030811;28;20475;-62
2023/01/12 00:58:27;;;;;;;12.90;3.95;;;;;;;;;;5033116;28;20041;-62
2023/01/12 01:00:53;;;;;;;16.63;4.63;;;;;;;;;;5030108;28;20117;-62
2023/01/12 01:03:19;;;;;;;12.98;3.05;;;;;;;;;;5031632;28;20116;-62
2023/01/12 01:05:45;;;;;;;10.80;2.88;;;;;;;;;;5030382;28;20033;-62
2023/01/12 01:08:11;;;;;;;13.40;3.42;;;;;;;;;;5027680;28;20029;-62
2023/01/12 01:10:37;;;;;;;16.58;2.97;;;;;;;;;;5030953;28;20076;-61
2023/01/12 01:13:03;;;;;;;16.48;3.35;;;;;;;;;;5031224;28;20468;-61
2023/01/12 01:15:29;;;;;;;11.90;3.38;;;;;;;;;;5024215;28;20030;-61
2023/01/12 01:17:55;;;;;;;13.20;2.83;;;;;;;;;;5031963;28;20525;-61
2023/01/12 01:20:21;;;;;;;14.90;3.33;;;;;;;;;;5030292;28;20132;-61
2023/01/12 01:22:47;;;;;;;18.00;4.15;;;;;;;;;;5026805;28;20037;-62
2023/01/12 01:25:13;;;;;;;17.98;4.25;;;;;;;;;;5029417;28;20049;-62
2023/01/12 01:27:39;;;;;;;17.88;3.85;;;;;;;;;;5027390;28;20045;-62
2023/01/12 01:30:06;;;;;;;14.80;3.88;;;;;;;;;;5030942;28;20128;-63
2023/01/12 01:32:32;;;;;;;16.73;3.63;;;;;;;;;;5027406;28;20055;-62
2023/01/12 01:34:58;;;;;;;14.73;3.28;;;;;;;;;;5025959;28;20052;-62
2023/01/12 01:37:24;;;;;;;13.63;3.17;;;;;;;;;;5027203;28;20041;-62
2023/01/12 01:39:50;;;;;;;9.73;2.92;;;;;;;;;;5031019;28;20045;-62
2023/01/12 01:42:26;;;;;;;15.73;3.50;;;;;;;;;;5028634;28;20068;-61
2023/01/12 01:44:53;;;;;;;13.50;3.55;;;;;;;;;;5025583;28;20657;-61
2023/01/12 01:47:46;;;;;;;17.35;4.18;;;;;;;;;;5029557;28;20037;-62
2023/01/12 01:50:23;;;;;;;13.90;3.58;;;;;;;;;;5020106;28;20045;-61
2023/01/12 01:52:55;;;;;;;9.63;3.05;;;;;;;;;;5030095;28;20087;-62
2023/01/12 01:55:48;;;;;;;15.88;4.00;;;;;;;;;;5027860;28;20048;-62
2023/01/12 01:58:19;;;;;;;16.08;4.03;;;;;;;;;;5021660;28;20053;-62
2023/01/12 02:00:45;;;;;;;16.73;4.10;;;;;;;;;;5030566;28;20053;-62
2023/01/12 02:03:12;;;;;;;13.43;3.10;;;;;;;;;;5026937;28;20380;-62
2023/01/12 02:05:41;;;;;;;12.70;3.45;;;;;;;;;;5021147;28;20052;-62
2023/01/12 02:08:11;;;;;;;17.33;3.65;;;;;;;;;;5021602;28;20407;-61
2023/01/12 02:10:38;;;;;;;14.32;4.47;;;;;;;;;;5027875;28;20116;-62
2023/01/12 02:18:42;;;;;;;15.50;3.90;;;;;;;;;;5030966;28;20052;-61
2023/01/12 02:21:23;;;;;;;15.15;3.88;;;;;;;;;;5039321;22;20065;-69
2023/01/12 02:23:49;;;;;;;;;;;;;;;;;;5007755;28;20030;-69
2023/01/12 02:26:29;;;;;;;13.90;3.35;;;;;;;;;;5009560;28;19918;-69
2023/01/12 02:29:14;;;;;;;13.15;4.63;;;;;;;;;;5009004;28;20037;-69
2023/01/12 02:31:52;;;;;;;20.80;4.32;;;;;;;;;;5002256;28;20034;-69
2023/01/12 02:34:37;;;;;;;15.88;4.18;;;;;;;;;;4973872;28;20039;-69
2023/01/12 02:37:16;;;;;;;16.63;4.03;;;;;;;;;;4990134;28;20504;-69
2023/01/12 02:39:44;;;;;;;16.38;4.70;;;;;;;;;;4989556;28;20049;-69
2023/01/12 02:45:01;;;;;;;15.75;4.40;;;;;;;;;;4989923;28;20113;-69
2023/01/12 02:47:45;;;;;;;14.85;3.67;;;;;;;;;;4991181;28;20488;-68
2023/01/12 02:50:14;;;;;;;15.60;4.32;;;;;;;;;;4984061;28;20038;-69
2023/01/12 02:52:43;;;;;;;12.65;4.32;;;;;;;;;;4990177;28;20049;-69
2023/01/12 02:55:09;;;;;;;15.25;4.15;;;;;;;;;;4989822;28;20093;-69
2023/01/12 02:57:36;;;;;;;17.58;4.90;;;;;;;;;;4998223;28;20344;-69
2023/01/12 03:00:04;;;;;;;20.30;4.85;;;;;;;;;;4982500;28;20049;-69
2023/01/12 03:02:30;;;;;;;14.68;4.43;;;;;;;;;;4989119;28;20047;-69
2023/01/12 03:04:56;;;;;;;16.05;4.70;;;;;;;;;;4982302;28;20051;-69
2023/01/12 03:07:32;;;;;;;18.73;4.63;;;;;;;;;;4981370;28;20046;-69
2023/01/12 03:10:16;;;;;;;17.05;5.22;;;;;;;;;;4993003;28;20415;-69
2023/01/12 03:12:43;;;;;;;18.30;4.95;;;;;;;;;;4995025;28;20066;-69
2023/01/12 03:15:10;;;;;;;13.55;4.22;;;;;;;;;;4994414;28;20039;-69
2023/01/12 03:17:38;;;;;;;18.50;4.90;;;;;;;;;;4994857;28;20046;-69
2023/01/12 03:20:11;;;;;;;14.50;4.68;;;;;;;;;;4992190;28;20046;-69
2023/01/12 03:22:37;;;;;;;17.17;4.72;;;;;;;;;;4991697;28;20504;-69
2023/01/12 03:25:09;;;;;;;18.33;4.22;;;;;;;;;;5002336;28;20045;-69
2023/01/12 03:27:35;;;;;;;;;;;;;;;;;;4994058;28;20046;-69
2023/01/12 03:30:04;;;;;;;10.98;3.50;;;;;;;;;;4989094;28;20433;-71
2023/01/12 03:32:30;;;;;;;12.38;4.22;;;;;;;;;;4994055;28;20041;-71
2023/01/12 03:34:57;;;;;;;15.02;3.83;;;;;;;;;;4989746;28;20042;-70
2023/01/12 03:37:23;;;;;;;12.43;3.53;;;;;;;;;;4993672;28;20125;-70
2023/01/12 03:39:58;;;;;;;11.98;3.15;;;;;;;;;;4992925;28;20049;-70
2023/01/12 03:42:37;;;;;;;13.98;4.20;;;;;;;;;;4993333;28;20038;-69
2023/01/12 03:45:22;;;;;;;11.30;3.40;;;;;;;;;;4989038;28;20046;-69
2023/01/12 03:47:54;;;;;;;10.63;5.07;;;;;;;;;;4993710;28;20049;-69
2023/01/12 03:50:26;;;;;;;10.43;4.10;;;;;;;;;;4989144;28;20154;-69
2023/01/12 03:52:53;;;;;;;7.50;3.30;;;;;;;;;;4993056;28;20072;-69
2023/01/12 03:55:22;;;;;;;11.43;4.32;;;;;;;;;;4994087;28;20050;-69
2023/01/12 03:57:48;;;;;;;11.63;3.75;;;;;;;;;;4993245;28;20042;-68
2023/01/12 04:00:16;;;;;;;7.65;3.10;;;;;;;;;;4987851;28;20051;-69
2023/01/12 04:02:43;;;;;;;15.88;4.18;;;;;;;;;;4969926;28;20504;-69
2023/01/12 04:05:09;;;;;;;7.90;3.75;;;;;;;;;;4992892;28;20496;-69
2023/01/12 04:07:35;;;;;;;12.25;4.55;;;;;;;;;;4992943;28;20097;-69
2023/01/12 04:10:01;;;;;;;9.25;3.63;;;;;;;;;;4970517;28;20049;-69
2023/01/12 04:12:27;;;;;;;7.68;3.72;;;;;;;;;;4986731;28;20053;-69
2023/01/12 04:14:53;;;;;;;8.93;3.40;;;;;;;;;;4992665;28;20042;-69
2023/01/12 04:17:23;;;;;;;8.88;3.45;;;;;;;;;;4998329;28;20037;-69
2023/01/12 04:19:50;;;;;;;8.27;3.25;;;;;;;;;;5003785;28;20050;-69
2023/01/12 04:25:01;;;;;;;6.13;2.60;;;;;;;;;;4986718;28;20049;-70
2023/01/12 04:27:27;;;;;;;7.80;2.60;;;;;;;;;;4992548;28;20480;-69
2023/01/12 04:29:53;;;;;;;7.00;2.22;;;;;;;;;;4973589;28;20488;-69
2023/01/12 04:32:19;;;;;;;8.38;2.22;;;;;;;;;;4992273;28;20046;-69
2023/01/12 04:34:45;;;;;;;3.88;1.50;;;;;;;;;;4993313;28;20034;-69
2023/01/12 04:37:12;;;;;;;9.90;2.10;;;;;;;;;;4971755;28;20053;-70
2023/01/12 04:39:38;;;;;;;4.72;1.90;;;;;;;;;;4974780;28;20141;-70
2023/01/12 04:42:04;;;;;;;10.68;2.17;;;;;;;;;;4992356;28;20137;-70
2023/01/12 04:44:31;;;;;;;5.18;1.40;;;;;;;;;;4989178;28;20532;-70
2023/01/12 04:46:57;;;;;;;7.53;1.92;;;;;;;;;;4992121;28;21816;-70
2023/01/12 04:49:23;;;;;;;3.28;1.70;;;;;;;;;;4992779;28;20054;-69
2023/01/12 04:51:49;;;;;;;6.57;1.90;;;;;;;;;;5000949;28;20048;-69
2023/01/12 04:54:15;;;;;;;4.80;1.40;;;;;;;;;;4987051;28;20441;-69
2023/01/12 04:56:41;;;;;;;2.67;0.98;;;;;;;;;;4987386;28;20495;-69
2023/01/12 04:59:09;;;;;;;5.70;1.38;;;;;;;;;;4990478;28;20038;-69
2023/01/12 05:01:37;;;;;;;6.40;1.35;;;;;;;;;;4969905;28;20046;-69
2023/01/12 05:04:03;;;;;;;4.53;1.25;;;;;;;;;;4987252;28;20113;-69
2023/01/12 05:06:29;;;;;;;4.80;1.48;;;;;;;;;;4974520;28;20046;-70
2023/01/12 05:11:40;;;;;;;4.47;1.17;;;;;;;;;;4991807;28;20447;-70
2023/01/12 05:14:06;;;;;;;4.13;1.17;;;;;;;;;;4992308;28;20038;-70
2023/01/12 05:16:32;;;;;;;3.45;1.25;;;;;;;;;;4997377;28;20096;-70
2023/01/12 05:18:58;;;;;;;4.38;1.50;;;;;;;;;;4991557;28;20053;-70
2023/01/12 05:21:24;;;;;;;3.83;1.65;;;;;;;;;;4991307;28;20044;-70
2023/01/12 05:23:53;;;;;;;5.43;1.33;;;;;;;;;;4991865;28;20042;-69
2023/01/12 05:26:19;;;;;;;6.20;1.13;;;;;;;;;;4991345;28;20042;-69
2023/01/12 05:28:49;;;;;;;3.28;1.08;;;;;;;;;;4988310;28;20069;-70
2023/01/12 05:31:15;;;;;;;5.05;1.02;;;;;;;;;;4987264;28;20054;-69
2023/01/12 05:33:41;;;;;;;3.35;1.13;;;;;;;;;;4985610;28;20026;-70
2023/01/12 05:36:09;;;;;;;2.53;0.93;;;;;;;;;;4987464;28;20447;-70
2023/01/12 05:38:35;;;;;;;2.53;1.02;;;;;;;;;;4991231;28;20045;-70
2023/01/12 05:41:02;;;;;;;4.95;1.45;;;;;;;;;;4990583;28;20088;-70
2023/01/12 05:46:13;;;;;;;3.30;1.15;;;;;;;;;;4999791;28;20038;-70
2023/01/12 05:48:39;;;;;;;6.22;1.02;;;;;;;;;;4991219;28;20118;-70
2023/01/12 05:51:07;;;;;;;3.67;1.08;;;;;;;;;;4980075;28;20512;-70
2023/01/12 05:53:33;;;;;;;4.40;1.00;;;;;;;;;;4981170;28;20039;-70
2023/01/12 05:56:05;;;;;;;5.10;1.20;;;;;;;;;;4991038;28;20077;-70
2023/01/12 05:58:31;;;;;;;4.00;1.00;;;;;;;;;;4991254;28;20150;-69
2023/01/12 06:00:57;;;;;;;2.72;0.88;;;;;;;;;;4999371;28;20100;-70
2023/01/12 06:03:23;;;;;;;3.90;1.00;;;;;;;;;;4992089;28;20038;-71
2023/01/12 06:05:57;;;;;;;6.07;1.38;;;;;;;;;;4991499;28;20130;-72
2023/01/12 06:08:23;;;;;;;4.32;1.35;;;;;;;;;;4973213;28;20496;-71
2023/01/12 06:10:50;;;;;;;3.05;1.10;;;;;;;;;;5000581;28;20042;-71
2023/01/12 06:16:04;;;;;;;4.32;1.13;;;;;;;;;;4992048;28;20042;-70
2023/01/12 06:18:36;;;;;;;2.97;1.10;;;;;;;;;;4991265;28;20037;-69
2023/01/12 06:21:03;;;;;;;4.80;1.00;;;;;;;;;;4991650;28;20046;-70
2023/01/12 06:23:29;;;;;;;5.47;1.30;;;;;;;;;;4998043;28;20057;-70
2023/01/12 06:25:56;;;;;;;1.25;0.90;;;;;;;;;;4994458;28;20065;-70
2023/01/12 06:28:22;;;;;;;4.65;1.30;;;;;;;;;;4992051;28;20467;-70
2023/01/12 06:30:57;;;;;;;2.30;0.98;;;;;;;;;;4992630;28;20134;-70
2023/01/12 06:33:24;;;;;;;3.33;1.10;;;;;;;;;;4998723;28;20069;-70
2023/01/12 06:35:50;;;;;;;4.47;1.05;;;;;;;;;;4983613;28;20042;-70
2023/01/12 06:38:16;;;;;;;3.20;0.93;;;;;;;;;;4991029;28;20047;-70
2023/01/12 06:40:42;;;;;;;4.68;1.20;;;;;;;;;;4999383;28;20393;-70
2023/01/12 06:43:08;;;;;;;2.42;1.30;;;;;;;;;;4987248;28;20038;-70
2023/01/12 06:45:34;;;;;;;2.95;1.00;;;;;;;;;;4991717;28;20066;-70
2023/01/12 06:48:00;;;;;;;2.22;1.05;;;;;;;;;;4991395;28;20035;-70
2023/01/12 06:50:26;;;;;;;1.83;0.90;;;;;;;;;;4990793;28;20050;-70
2023/01/12 06:52:52;;;;;;;5.25;1.10;;;;;;;;;;4996183;28;20041;-71
2023/01/12 06:55:18;;;;;;;2.38;1.05;;;;;;;;;;4999951;28;20045;-70
2023/01/12 06:57:44;;;;;;;4.13;1.20;;;;;;;;;;4989079;28;20436;-70
2023/01/12 07:00:12;;;;;;;1.95;1.10;;;;;;;;;;4988935;28;20049;-70
2023/01/12 07:02:38;;;;;;;3.85;0.93;;;;;;;;;;4991795;28;20081;-70
2023/01/12 07:05:04;;;;;;;1.83;1.00;;;;;;;;;;4994861;28;20113;-70
2023/01/12 07:07:30;;;;;;;2.38;0.73;;;;;;;;;;4994154;28;20100;-70
2023/01/12 07:09:56;;;;;;;2.55;0.85;;;;;;;;;;5005907;28;20050;-70
2023/01/12 07:12:22;;;;;;;3.08;0.80;;;;;;;;;;5013951;28;20044;-70
2023/01/12 07:14:48;;;;;;;4.40;1.10;;;;;;;;;;5003155;28;20038;-69
2023/01/12 07:17:14;;;;;;;1.52;0.75;;;;;;;;;;4995580;28;20049;-70
2023/01/12 07:19:41;;;;;;;2.90;1.33;;;;;;;;;;4994755;28;20397;-69
2023/01/12 07:22:07;;;;;;;2.67;1.02;;;;;;;;;;4985366;28;20129;-69
2023/01/12 07:24:33;;;;;;;2.85;1.08;;;;;;;;;;4989370;28;20533;-69
2023/01/12 07:27:00;;;;;;;1.83;0.90;;;;;;;;;;4990912;28;20180;-69
2023/01/12 07:29:26;;;;;;;3.97;1.23;;;;;;;;;;4984985;28;20042;-69
2023/01/12 07:31:52;;;;;;;2.53;0.98;;;;;;;;;;4990493;28;20042;-69
2023/01/12 07:34:18;;;;;;;0.70;0.70;;;;;;;;;;4998063;28;20096;-69
2023/01/12 07:36:47;;;;;;;2.65;1.20;;;;;;;;;;4990425;28;20050;-69
2023/01/12 07:39:13;;;;;;;2.28;0.93;;;;;;;;;;4998453;28;20177;-69
2023/01/12 07:44:23;;;;;;;2.25;1.10;;;;;;;;;;4980579;28;20136;-69
2023/01/12 07:46:49;;;;;;;2.63;1.00;;;;;;;;;;4988174;28;20508;-69
2023/01/12 07:49:15;;;;;;;1.92;1.00;;;;;;;;;;4995899;28;20038;-70
2023/01/12 07:51:41;;;;;;;2.28;1.13;;;;;;;;;;5001992;28;20050;-69
2023/01/12 07:54:07;;;;;;;2.03;1.40;;;;;;;;;;4989270;28;20119;-70
2023/01/12 07:56:33;;;;;;;2.97;1.30;;;;;;;;;;4997694;28;20040;-69
2023/01/12 07:58:59;;;;;;;2.20;1.27;;;;;;;;;;4994112;28;20030;-70
2023/01/12 08:01:25;;;;;;;1.50;1.10;;;;;;;;;;4990547;28;20041;-69
2023/01/12 08:03:51;;;;;;;1.65;1.38;;;;;;;;;;4995242;28;20069;-70
2023/01/12 08:06:17;;;;;;;1.67;1.20;;;;;;;;;;5005397;28;20492;-70
2023/01/12 08:08:44;;;;;;;1.83;1.05;;;;;;;;;;5011742;28;20061;-69
2023/01/12 08:11:10;;;;;;;1.48;1.30;;;;;;;;;;4994258;28;20039;-69
2023/01/12 08:13:37;;;;;;;4.38;1.30;;;;;;;;;;4998700;28;20389;-69
2023/01/12 08:16:11;;;;;;;2.17;1.20;;;;;;;;;;4990283;28;20468;-68
2023/01/12 08:18:41;;;;;;;1.40;1.30;;;;;;;;;;5004428;28;20038;-69
2023/01/12 08:21:11;;;;;;;3.38;1.42;;;;;;;;;;5008506;22;20057;-63
2023/01/12 08:23:42;;;;;;;1.10;1.00;;;;;;;;;;4972289;28;20101;-63
2023/01/12 08:26:08;;;;;;;;;;;;;;;;;;4988413;28;20039;-63
2023/01/12 08:28:36;;;;;;;1.90;1.20;;;;;;;;;;4991661;28;19964;-63
2023/01/12 08:31:02;;;;;;;3.40;1.35;;;;;;;;;;4977999;28;20043;-63
2023/01/12 08:33:28;;;;;;;2.88;1.60;;;;;;;;;;4990680;28;20447;-63
2023/01/12 08:35:54;;;;;;;4.07;2.03;;;;;;;;;;4995416;28;20042;-63
2023/01/12 08:38:20;;;;;;;2.75;1.60;;;;;;;;;;4991673;28;20034;-63
2023/01/12 08:46:16;;;;;;;3.10;1.70;;;;;;;;;;4990481;28;20054;-63
2023/01/12 08:48:42;;;;;;;2.72;1.60;;;;;;;;;;4989992;28;20042;-63
2023/01/12 08:51:08;;;;;;;3.38;1.65;;;;;;;;;;4999401;28;20037;-63
2023/01/12 08:53:34;;;;;;;5.28;2.13;;;;;;;;;;4993612;28;20137;-63
2023/01/12 08:56:00;;;;;;;3.97;1.80;;;;;;;;;;4992405;28;20077;-63
2023/01/12 08:58:26;;;;;;;3.38;1.90;;;;;;;;;;4991807;28;20443;-63
2023/01/12 09:00:52;;;;;;;3.40;1.60;;;;;;;;;;4993456;28;20101;-63
2023/01/12 09:03:18;;;;;;;6.07;1.90;;;;;;;;;;4992262;28;20046;-64
2023/01/12 09:05:44;;;;;;;5.70;2.05;;;;;;;;;;4994589;28;20652;-63
2023/01/12 09:08:10;;;;;;;4.90;1.80;;;;;;;;;;5002365;28;20555;-63
2023/01/12 09:10:37;;;;;;;4.80;2.10;;;;;;;;;;4978504;28;20138;-63
2023/01/12 09:13:03;;;;;;;4.60;1.98;;;;;;;;;;4994762;28;20117;-63
2023/01/12 09:15:29;;;;;;;10.63;2.20;;;;;;;;;;4994256;28;20080;-63
2023/01/12 09:17:55;;;;;;;7.10;1.88;;;;;;;;;;4992548;28;20500;-63
2023/01/12 09:20:22;;;;;;;8.30;2.03;;;;;;;;;;4993520;28;20038;-62
2023/01/12 09:22:48;;;;;;;11.77;3.00;;;;;;;;;;4988969;28;20044;-63
2023/01/12 09:25:14;;;;;;;9.18;1.83;;;;;;;;;;4998266;28;20033;-62
2023/01/12 09:27:40;;;;;;;11.18;2.42;;;;;;;;;;4992185;28;20576;-63
2023/01/12 09:30:06;;;;;;;18.90;3.28;;;;;;;;;;4991788;28;20042;-63
2023/01/12 09:32:32;;;;;;;12.93;2.80;;;;;;;;;;4988778;28;20152;-63
2023/01/12 09:34:58;;;;;;;14.10;2.65;;;;;;;;;;4991152;28;20088;-63
2023/01/12 09:37:25;;;;;;;16.58;3.25;;;;;;;;;;4990644;28;20034;-64
2023/01/12 09:39:51;;;;;;;12.88;2.95;;;;;;;;;;5008429;28;20566;-63
2023/01/12 09:48:00;;;;;;;17.02;3.05;;;;;;;;;;4997338;28;20042;-64
2023/01/12 09:50:32;;;;;;;20.33;3.10;;;;;;;;;;4984723;28;20046;-63
2023/01/12 09:53:17;;;;;;;22.05;3.22;;;;;;;;;;4988096;28;20427;-63
2023/01/12 09:55:43;;;;;;;24.35;3.47;;;;;;;;;;4987056;28;20042;-63
2023/01/12 09:58:35;;;;;;;21.02;3.30;;;;;;;;;;4975387;28;20035;-63
2023/01/12 10:01:07;;;;;;;18.65;3.65;;;;;;;;;;4940993;28;20054;-63
2023/01/12 10:03:37;;;;;;;23.35;3.78;;;;;;;;;;4995920;28;20038;-63
2023/01/12 10:06:04;;;;;;;24.60;3.53;;;;;;;;;;4990958;28;20087;-63
2023/01/12 10:08:30;;;;;;;21.48;3.53;;;;;;;;;;5004025;28;20034;-63
2023/01/12 10:11:01;;;;;;;21.77;2.80;;;;;;;;;;5011537;28;20046;-63
2023/01/12 10:13:34;;;;;;;21.48;2.97;;;;;;;;;;5011341;28;20042;-63
2023/01/12 10:16:03;;;;;;;16.75;3.10;;;;;;;;;;4969383;28;20037;-63
2023/01/12 10:18:33;;;;;;;18.45;4.10;;;;;;;;;;4997013;28;20070;-63
2023/01/12 10:20:59;;;;;;;22.13;3.17;;;;;;;;;;4998323;28;20042;-63
2023/01/12 10:23:26;;;;;;;15.75;3.17;;;;;;;;;;5006324;28;20056;-63
2023/01/12 10:25:59;;;;;;;20.15;3.10;;;;;;;;;;4955394;28;20042;-63
2023/01/12 10:28:30;;;;;;;19.77;2.83;;;;;;;;;;4988107;28;20052;-63
2023/01/12 10:30:56;;;;;;;;;;;;;;;;;;4988141;28;20084;-63
2023/01/12 10:33:23;;;;;;;18.02;2.53;;;;;;;;;;4990253;28;20288;-63
2023/01/12 10:35:49;;;;;;;13.60;2.50;;;;;;;;;;4989015;28;20076;-63
2023/01/12 10:38:24;;;;;;;15.45;2.38;;;;;;;;;;4998453;28;20454;-63
2023/01/12 10:41:05;;;;;;;14.18;2.50;;;;;;;;;;4989712;28;20452;-63
2023/01/12 10:43:33;;;;;;;;;;;;;;;;;;4990680;28;20037;-63
2023/01/12 10:46:02;;;;;;;10.45;2.33;;;;;;;;;;4978926;28;19917;-63
2023/01/12 10:48:28;;;;;;;11.13;2.30;;;;;;;;;;4988957;28;20058;-63
2023/01/12 10:50:57;;;;;;;10.13;1.92;;;;;;;;;;4987106;28;20051;-63
2023/01/12 10:53:27;;;;;;;11.25;2.30;;;;;;;;;;4987913;28;20050;-63
2023/01/12 10:55:54;;;;;;;10.50;1.73;;;;;;;;;;4988094;28;20093;-63
2023/01/12 10:58:31;;;;;;;7.32;1.88;;;;;;;;;;4988930;28;20065;-63
2023/01/12 11:00:57;;;;;;;10.43;2.08;;;;;;;;;;4987973;28;20051;-63
2023/01/12 11:03:33;;;;;;;6.22;1.45;;;;;;;;;;4986930;28;20050;-63
2023/01/12 11:06:15;;;;;;;11.57;2.47;;;;;;;;;;4991804;28;20130;-63
2023/01/12 11:08:41;;;;;;;13.20;2.13;;;;;;;;;;4989633;28;20045;-63
2023/01/12 11:11:34;;;;;;;14.13;2.90;;;;;;;;;;4973506;28;20085;-63
2023/01/12 11:14:01;;;;;;;15.32;2.63;;;;;;;;;;4993808;28;20050;-63
2023/01/12 11:16:27;;;;;;;11.48;2.00;;;;;;;;;;4989100;28;20042;-63
2023/01/12 11:18:58;;;;;;;13.35;3.22;;;;;;;;;;5006189;28;20089;-64
2023/01/12 11:21:24;;;;;;;;;;;;;;;;;;5009047;28;20571;-63
2023/01/12 11:24:04;;;;;;;16.27;2.65;;;;;;;;;;4990338;28;20004;-64
2023/01/12 11:26:42;;;;;;;16.37;2.67;;;;;;;;;;4989776;28;20389;-64
2023/01/12 11:29:27;;;;;;;20.88;2.75;;;;;;;;;;4998701;28;20045;-64
2023/01/12 11:31:56;;;;;;;17.90;3.30;;;;;;;;;;4993557;28;20113;-63
2023/01/12 11:34:24;;;;;;;22.48;2.70;;;;;;;;;;4993506;28;20038;-64
2023/01/12 11:36:52;;;;;;;18.05;3.25;;;;;;;;;;4996373;28;20092;-63
2023/01/12 11:39:26;;;;;;;18.40;2.83;;;;;;;;;;4992508;28;20038;-63
2023/01/12 11:44:44;;;;;;;16.90;2.85;;;;;;;;;;5009060;28;20183;-64
2023/01/12 11:47:14;;;;;;;18.45;3.00;;;;;;;;;;4998614;28;20038;-63
2023/01/12 11:49:40;;;;;;;16.77;2.95;;;;;;;;;;4992943;28;20049;-64
2023/01/12 11:52:08;;;;;;;11.98;3.08;;;;;;;;;;4977059;28;20033;-63
2023/01/12 11:54:36;;;;;;;20.60;2.95;;;;;;;;;;5006308;28;20073;-63
2023/01/12 11:57:18;;;;;;;20.33;3.60;;;;;;;;;;5008803;28;20038;-63
2023/01/12 12:00:08;;;;;;;14.70;2.65;;;;;;;;;;4993413;28;20196;-64
2023/01/12 12:02:55;;;;;;;17.73;3.33;;;;;;;;;;4997686;28;20061;-64
2023/01/12 12:05:30;;;;;;;17.27;2.80;;;;;;;;;;4989863;28;20045;-64
2023/01/12 12:08:02;;;;;;;15.95;3.15;;;;;;;;;;4999856;28;20038;-64
2023/01/12 12:10:27;;;;;;;;;;;;;;;;;;5004061;28;20038;-64
2023/01/12 12:13:12;;;;;;;17.33;3.35;;;;;;;;;;4986877;28;19917;-65
2023/01/12 12:15:42;;;;;;;20.35;3.33;;;;;;;;;;5003305;28;20672;-64
2023/01/12 12:18:16;;;;;;;19.60;2.95;;;;;;;;;;4979614;28;20057;-64
2023/01/12 12:21:01;;;;;;;16.08;3.13;;;;;;;;;;4997510;28;20042;-64
2023/01/12 12:23:35;;;;;;;19.50;3.03;;;;;;;;;;4982565;28;20454;-64
2023/01/12 12:26:10;;;;;;;19.98;3.15;;;;;;;;;;4999460;28;20038;-64
2023/01/12 12:28:55;;;;;;;19.73;3.78;;;;;;;;;;5006389;28;20038;-64
2023/01/12 12:31:30;;;;;;;19.00;2.83;;;;;;;;;;4999241;28;20465;-64
2023/01/12 12:33:59;;;;;;;14.15;3.35;;;;;;;;;;4997473;28;20068;-63
2023/01/12 12:36:40;;;;;;;20.15;4.40;;;;;;;;;;4999732;28;20113;-64
2023/01/12 12:39:15;;;;;;;20.67;3.08;;;;;;;;;;5000077;28;20038;-63
2023/01/12 12:47:25;;;;;;;25.52;3.53;;;;;;;;;;4975559;28;20041;-63
2023/01/12 12:49:54;;;;;;;16.80;3.25;;;;;;;;;;4973827;28;20046;-63
2023/01/12 12:52:21;;;;;;;20.48;3.13;;;;;;;;;;4990941;28;20116;-63
2023/01/12 12:54:47;;;;;;;17.55;2.63;;;;;;;;;;4993357;28;20046;-63
2023/01/12 12:57:14;;;;;;;22.10;3.17;;;;;;;;;;4994297;28;20049;-63
2023/01/12 12:59:40;;;;;;;22.58;3.22;;;;;;;;;;4994058;28;20049;-64
2023/01/12 13:02:25;;;;;;;10.13;2.45;;;;;;;;;;4994574;28;20042;-64
2023/01/12 13:04:52;;;;;;;20.70;3.13;;;;;;;;;;5013158;28;20147;-63
2023/01/12 13:07:21;;;;;;;15.23;2.83;;;;;;;;;;5012442;28;20099;-63
2023/01/12 13:09:48;;;;;;;15.93;2.85;;;;;;;;;;5005932;28;20080;-63
2023/01/12 13:12:20;;;;;;;15.45;3.13;;;;;;;;;;4970628;28;20089;-63
2023/01/12 13:15:06;;;;;;;17.15;2.53;;;;;;;;;;5000131;28;20035;-63
2023/01/12 13:17:32;;;;;;;20.20;3.45;;;;;;;;;;4987779;28;20412;-63
2023/01/12 13:20:01;;;;;;;16.77;3.03;;;;;;;;;;4994813;28;20045;-63
2023/01/12 13:22:27;;;;;;;16.65;2.78;;;;;;;;;;4991488;28;20058;-64
2023/01/12 13:24:53;;;;;;;20.42;2.60;;;;;;;;;;4994491;28;20045;-64
2023/01/12 13:27:38;;;;;;;13.88;2.55;;;;;;;;;;5004139;28;20041;-63
2023/01/12 13:30:22;;;;;;;18.90;3.17;;;;;;;;;;5004452;28;20574;-63
2023/01/12 13:32:55;;;;;;;14.45;2.70;;;;;;;;;;4999108;28;20045;-63
2023/01/12 13:35:48;;;;;;;18.20;3.38;;;;;;;;;;4992669;28;20042;-63
2023/01/12 13:38:30;;;;;;;13.45;2.90;;;;;;;;;;4992663;28;20408;-63
2023/01/12 13:41:02;;;;;;;17.23;3.05;;;;;;;;;;4994216;28;20164;-63
2023/01/12 13:43:32;;;;;;;15.27;2.45;;;;;;;;;;5006049;28;20065;-62
2023/01/12 13:46:12;;;;;;;13.10;3.08;;;;;;;;;;4971623;28;20096;-63
2023/01/12 13:48:41;;;;;;;12.00;2.35;;;;;;;;;;4974123;28;20046;-64
2023/01/12 13:51:16;;;;;;;12.93;2.90;;;;;;;;;;4992086;28;20412;-63
2023/01/12 13:53:42;;;;;;;12.10;2.58;;;;;;;;;;4991558;28;20057;-63
2023/01/12 13:56:18;;;;;;;9.93;2.28;;;;;;;;;;4997525;28;20034;-63
2023/01/12 13:58:44;;;;;;;12.23;2.25;;;;;;;;;;5008448;28;20073;-63
2023/01/12 14:01:25;;;;;;;9.95;2.25;;;;;;;;;;4992560;28;20042;-63
2023/01/12 14:04:21;;;;;;;6.65;2.33;;;;;;;;;;4995237;28;20073;-63
2023/01/12 14:07:06;;;;;;;8.50;2.20;;;;;;;;;;4990585;28;20117;-62
2023/01/12 14:09:32;;;;;;;8.27;1.88;;;;;;;;;;4992225;28;20512;-62
2023/01/12 14:11:58;;;;;;;9.48;1.70;;;;;;;;;;4999339;28;20076;-63
2023/01/12 14:20:21;;;;;;;7.75;1.60;;;;;;;;;;4976957;28;20096;-63
2023/01/12 14:22:47;;;;;;;5.88;1.65;;;;;;;;;;5046023;22;20041;-62
2023/01/12 14:25:21;;;;;;;6.10;1.75;;;;;;;;;;5039477;28;20045;-62
2023/01/12 14:27:48;;;;;;;5.45;1.70;;;;;;;;;;5043362;28;20386;-62
2023/01/12 14:30:14;;;;;;;5.75;1.80;;;;;;;;;;5042588;28;20072;-62
2023/01/12 14:32:45;;;;;;;8.07;2.10;;;;;;;;;;5041920;28;20033;-62
2023/01/12 14:35:15;;;;;;;3.40;1.80;;;;;;;;;;5040371;28;20039;-62
2023/01/12 14:37:42;;;;;;;6.55;2.17;;;;;;;;;;5044333;28;20040;-62
2023/01/12 14:40:17;;;;;;;4.05;2.15;;;;;;;;;;5039816;28;20523;-62
2023/01/12 14:48:20;;;;;;;3.17;1.80;;;;;;;;;;5043885;28;20086;-62
2023/01/12 14:51:17;;;;;;;3.22;1.50;;;;;;;;;;5037657;28;20125;-62
2023/01/12 14:53:45;;;;;;;3.08;1.70;;;;;;;;;;5033463;28;20077;-62
2023/01/12 14:56:16;;;;;;;3.83;1.70;;;;;;;;;;5031565;28;20068;-63
2023/01/12 14:58:43;;;;;;;2.97;1.80;;;;;;;;;;5037043;28;20517;-63
2023/01/12 15:01:10;;;;;;;1.73;1.60;;;;;;;;;;5045738;28;20056;-63
2023/01/12 15:03:36;;;;;;;2.03;1.60;;;;;;;;;;5049791;28;20120;-62
2023/01/12 15:06:02;;;;;;;3.00;1.85;;;;;;;;;;5040912;28;20091;-62
2023/01/12 15:08:29;;;;;;;4.10;2.65;;;;;;;;;;5053639;28;20371;-62
2023/01/12 15:10:57;;;;;;;3.60;2.53;;;;;;;;;;5051295;28;20068;-63
2023/01/12 15:13:25;;;;;;;4.07;3.25;;;;;;;;;;5046878;28;20041;-62
2023/01/12 15:27:12;;;;;;;1.88;1.30;;;;;;;;;;5047662;28;20071;-62
2023/01/12 15:29:39;;;;;;;0.95;0.85;;;;;;;;;;5044711;28;20065;-62
2023/01/12 15:32:05;;;;;;;0.90;0.80;;;;;;;;;;5044978;28;20048;-62
2023/01/12 15:34:32;;;;;;;0.80;0.80;;;;;;;;;;5045899;28;20033;-62
2023/01/12 15:36:58;;;;;;;0.98;0.93;;;;;;;;;;5043443;28;20483;-62
2023/01/12 15:39:24;;;;;;;0.80;0.70;;;;;;;;;;5042342;28;20045;-62
2023/01/12 15:44:37;;;;;;;0.80;0.80;;;;;;;;;;5034266;28;20557;-63
2023/01/12 15:47:03;;;;;;;1.27;1.10;;;;;;;;;;5047556;28;20068;-62
2023/01/12 15:49:29;;;;;;;1.65;1.27;;;;;;;;;;5038181;28;20395;-62
2023/01/12 15:51:55;;;;;;;1.25;1.15;;;;;;;;;;5044832;28;20044;-62
2023/01/12 15:54:21;;;;;;;1.17;1.08;;;;;;;;;;5048279;28;20040;-62
2023/01/12 15:56:47;;;;;;;1.23;1.13;;;;;;;;;;5045187;28;20047;-62
2023/01/12 15:59:13;;;;;;;1.40;1.13;;;;;;;;;;5042259;28;20043;-62
2023/01/12 16:01:45;;;;;;;2.65;1.67;;;;;;;;;;5045642;28;20051;-62
2023/01/12 16:04:10;;;;;;;;;;;;;;;;;;5046549;28;20041;-62